sensor_id;sensor_type;location;lat;lon;timestamp;temperature;humidity
15789;DHT22;59075;50.670;6.474;2022-08-23T05:03:17;24.40;99.90
15789;DHT22;59075;50.670;6.474;2022-08-23T05:05:44;24.30;99.90
15789;DHT22;59075;50.670;6.474;2022-08-23T05:08:11;24.40;99.90
15789;DHT22;59075;50.670;6.474;2022-08-23T05:10:38;24.40;99.90
15789;DHT22;59075;50.670;6.474;2022-08-23T05:13:04;24.40;99.90
15789;DHT22;59075;50.670;6.474;2022-08-23T05:15:31;24.30;99.90
15789;DHT22;59075;50.670;6.474;2022-08-23T05:17:59;24.30;99.90
15789;DHT22;59075;50.670;6.474;2022-08-23T05:20:26;24.40;99.90
15789;DHT22;59075;50.670;6.474;2022-08-23T05:22:53;24.40;99.90
15789;DHT22;59075;50.670;6.474;2022-08-23T05:25:20;24.40;99.90
15789;DHT22;59075;50.670;6.474;2022-08-23T05:30:14;24.40;99.90
15789;DHT22;59075;50.670;6.474;2022-08-23T05:32:40;24.40;99.90
15789;DHT22;59075;50.670;6.474;2022-08-23T05:35:09;24.40;99.90
15789;DHT22;59075;50.670;6.474;2022-08-23T05:37:35;24.40;99.90
15789;DHT22;59075;50.670;6.474;2022-08-23T05:40:03;24.40;99.90
15789;DHT22;59075;50.670;6.474;2022-08-23T05:42:30;24.40;99.90
15789;DHT22;59075;50.670;6.474;2022-08-23T05:44:57;24.50;99.90
15789;DHT22;59075;50.670;6.474;2022-08-23T05:52:22;24.50;99.90
15789;DHT22;59075;50.670;6.474;2022-08-23T05:54:49;24.40;99.90
15789;DHT22;59075;50.670;6.474;2022-08-23T05:57:15;24.40;99.90
15789;DHT22;59075;50.670;6.474;2022-08-23T05:59:42;24.50;99.90
15789;DHT22;59075;50.670;6.474;2022-08-23T06:02:09;24.50;99.90
15789;DHT22;59075;50.670;6.474;2022-08-23T06:07:02;24.50;99.90
15789;DHT22;59075;50.670;6.474;2022-08-23T06:09:32;24.40;99.90
15789;DHT22;59075;50.670;6.474;2022-08-23T06:14:26;24.40;99.90
15789;DHT22;59075;50.670;6.474;2022-08-23T06:16:53;24.40;99.90
15789;DHT22;59075;50.670;6.474;2022-08-23T06:19:19;24.40;99.90
15789;DHT22;59075;50.670;6.474;2022-08-23T06:21:47;24.40;99.90
15789;DHT22;59075;50.670;6.474;2022-08-23T06:24:13;24.40;99.90
15789;DHT22;59075;50.670;6.474;2022-08-23T06:26:43;24.40;99.90
15789;DHT22;59075;50.670;6.474;2022-08-23T06:29:12;24.50;99.90
15789;DHT22;59075;50.670;6.474;2022-08-23T06:31:41;24.40;99.90
15789;DHT22;59075;50.670;6.474;2022-08-23T06:34:15;24.40;99.90
15789;DHT22;59075;50.670;6.474;2022-08-23T06:36:43;24.50;99.90
15789;DHT22;59075;50.670;6.474;2022-08-23T06:39:11;24.50;99.90
15789;DHT22;59075;50.670;6.474;2022-08-23T06:41:38;24.50;99.90
15789;DHT22;59075;50.670;6.474;2022-08-23T06:44:06;24.50;99.90
15789;DHT22;59075;50.670;6.474;2022-08-23T06:46:34;24.50;99.90
15789;DHT22;59075;50.670;6.474;2022-08-23T06:54:01;24.50;99.90
15789;DHT22;59075;50.670;6.474;2022-08-23T06:56:28;24.50;99.90
15789;DHT22;59075;50.670;6.474;2022-08-23T07:01:26;24.50;99.90
15789;DHT22;59075;50.670;6.474;2022-08-23T07:03:56;24.60;99.90
15789;DHT22;59075;50.670;6.474;2022-08-23T07:06:23;24.60;99.90
15789;DHT22;59075;50.670;6.474;2022-08-23T07:08:51;24.60;99.90
15789;DHT22;59075;50.670;6.474;2022-08-23T07:13:45;24.60;99.90
15789;DHT22;59075;50.670;6.474;2022-08-23T07:16:13;24.50;99.90
15789;DHT22;59075;50.670;6.474;2022-08-23T07:18:41;24.60;99.90
15789;DHT22;59075;50.670;6.474;2022-08-23T07:21:08;24.60;99.90
15789;DHT22;59075;50.670;6.474;2022-08-23T07:23:34;24.50;99.90
15789;DHT22;59075;50.670;6.474;2022-08-23T07:26:02;24.50;99.90
15789;DHT22;59075;50.670;6.474;2022-08-23T07:28:31;24.50;99.90
15789;DHT22;59075;50.670;6.474;2022-08-23T07:33:32;24.50;99.90
15789;DHT22;59075;50.670;6.474;2022-08-23T07:36:00;24.50;99.90
15789;DHT22;59075;50.670;6.474;2022-08-23T07:38:26;24.50;99.90
15789;DHT22;59075;50.670;6.474;2022-08-23T07:40:53;24.50;99.90
15789;DHT22;59075;50.670;6.474;2022-08-23T07:43:20;24.50;99.90
15789;DHT22;59075;50.670;6.474;2022-08-23T07:45:47;24.50;99.90
15789;DHT22;59075;50.670;6.474;2022-08-23T07:48:14;24.50;99.90
15789;DHT22;59075;50.670;6.474;2022-08-23T07:50:41;24.40;99.90
15789;DHT22;59075;50.670;6.474;2022-08-23T07:53:17;24.50;99.90
15789;DHT22;59075;50.670;6.474;2022-08-23T07:55:43;24.50;99.90
15789;DHT22;59075;50.670;6.474;2022-08-23T07:58:10;24.50;99.90
15789;DHT22;59075;50.670;6.474;2022-08-23T08:00:37;24.50;99.90
15789;DHT22;59075;50.670;6.474;2022-08-23T08:03:04;24.50;99.90
15789;DHT22;59075;50.670;6.474;2022-08-23T08:05:31;24.50;99.90
15789;DHT22;59075;50.670;6.474;2022-08-23T08:07:57;24.50;99.90
15789;DHT22;59075;50.670;6.474;2022-08-23T08:10:25;24.50;99.90
15789;DHT22;59075;50.670;6.474;2022-08-23T08:12:52;24.50;99.90
15789;DHT22;59075;50.670;6.474;2022-08-23T08:15:19;24.50;99.90
15789;DHT22;59075;50.670;6.474;2022-08-23T08:20:14;24.50;99.90
15789;DHT22;59075;50.670;6.474;2022-08-23T08:25:08;24.50;99.90
15789;DHT22;59075;50.670;6.474;2022-08-23T08:27:37;24.50;99.90
15789;DHT22;59075;50.670;6.474;2022-08-23T08:32:31;24.60;99.90
15789;DHT22;59075;50.670;6.474;2022-08-23T08:34:58;24.60;99.90
15789;DHT22;59075;50.670;6.474;2022-08-23T08:37:25;24.60;99.90
15789;DHT22;59075;50.670;6.474;2022-08-23T08:39:52;24.60;99.90
15789;DHT22;59075;50.670;6.474;2022-08-23T08:42:29;24.60;99.90
15789;DHT22;59075;50.670;6.474;2022-08-23T08:45:01;24.60;99.90
15789;DHT22;59075;50.670;6.474;2022-08-23T08:47:33;24.60;99.90
15789;DHT22;59075;50.670;6.474;2022-08-23T08:50:07;24.70;99.90
15789;DHT22;59075;50.670;6.474;2022-08-23T08:52:37;24.70;99.90
15789;DHT22;59075;50.670;6.474;2022-08-23T08:55:07;24.70;99.90
15789;DHT22;59075;50.670;6.474;2022-08-23T09:02:37;24.70;99.90
15789;DHT22;59075;50.670;6.474;2022-08-23T09:05:10;24.70;99.90
15789;DHT22;59075;50.670;6.474;2022-08-23T09:07:45;24.70;99.90
15789;DHT22;59075;50.670;6.474;2022-08-23T09:12:54;24.70;99.90
15789;DHT22;59075;50.670;6.474;2022-08-23T09:15:32;24.80;99.90
15789;DHT22;59075;50.670;6.474;2022-08-23T09:18:06;24.80;99.90
15789;DHT22;59075;50.670;6.474;2022-08-23T09:20:34;24.80;99.90
15789;DHT22;59075;50.670;6.474;2022-08-23T09:23:06;24.80;99.90
15789;DHT22;59075;50.670;6.474;2022-08-23T09:28:01;24.80;99.90
15789;DHT22;59075;50.670;6.474;2022-08-23T09:30:50;24.80;99.90
15789;DHT22;59075;50.670;6.474;2022-08-23T09:36:02;24.90;99.90
15789;DHT22;59075;50.670;6.474;2022-08-23T09:38:29;24.90;99.90
15789;DHT22;59075;50.670;6.474;2022-08-23T09:40:56;24.90;99.90
15789;DHT22;59075;50.670;6.474;2022-08-23T09:43:25;24.90;99.90
15789;DHT22;59075;50.670;6.474;2022-08-23T09:45:57;24.90;99.90
15789;DHT22;59075;50.670;6.474;2022-08-23T09:48:34;24.90;99.90
15789;DHT22;59075;50.670;6.474;2022-08-23T09:51:16;24.90;99.90
15789;DHT22;59075;50.670;6.474;2022-08-23T09:53:46;24.90;99.90
15789;DHT22;59075;50.670;6.474;2022-08-23T09:56:17;24.90;99.90
15789;DHT22;59075;50.670;6.474;2022-08-23T10:01:22;25.00;99.90
15789;DHT22;59075;50.670;6.474;2022-08-23T10:04:08;25.00;99.90
15789;DHT22;59075;50.670;6.474;2022-08-23T10:06:36;25.00;99.90
15789;DHT22;59075;50.670;6.474;2022-08-23T10:09:04;25.10;99.90
15789;DHT22;59075;50.670;6.474;2022-08-23T10:11:34;25.10;99.90
15789;DHT22;59075;50.670;6.474;2022-08-23T10:14:02;25.10;99.90
15789;DHT22;59075;50.670;6.474;2022-08-23T10:16:38;25.10;99.90
15789;DHT22;59075;50.670;6.474;2022-08-23T10:19:13;25.10;99.90
15789;DHT22;59075;50.670;6.474;2022-08-23T10:21:50;25.10;99.90
15789;DHT22;59075;50.670;6.474;2022-08-23T10:24:28;25.20;99.90
15789;DHT22;59075;50.670;6.474;2022-08-23T10:29:54;25.20;99.90
15789;DHT22;59075;50.670;6.474;2022-08-23T10:32:33;25.20;99.90
15789;DHT22;59075;50.670;6.474;2022-08-23T10:37:54;25.30;99.90
15789;DHT22;59075;50.670;6.474;2022-08-23T10:40:27;25.30;99.90
15789;DHT22;59075;50.670;6.474;2022-08-23T10:43:05;25.20;99.90
15789;DHT22;59075;50.670;6.474;2022-08-23T10:45:35;25.30;99.90
15789;DHT22;59075;50.670;6.474;2022-08-23T10:48:16;25.30;99.90
15789;DHT22;59075;50.670;6.474;2022-08-23T10:50:48;25.30;99.90
15789;DHT22;59075;50.670;6.474;2022-08-23T10:53:17;25.30;99.90
15789;DHT22;59075;50.670;6.474;2022-08-23T10:55:47;25.30;99.90
15789;DHT22;59075;50.670;6.474;2022-08-23T10:58:33;25.30;99.90
15789;DHT22;59075;50.670;6.474;2022-08-23T11:01:00;25.30;99.90
15789;DHT22;59075;50.670;6.474;2022-08-23T11:03:31;25.30;99.90
15789;DHT22;59075;50.670;6.474;2022-08-23T11:06:22;25.40;99.90
15789;DHT22;59075;50.670;6.474;2022-08-23T11:08:57;25.40;99.90
15789;DHT22;59075;50.670;6.474;2022-08-23T11:14:25;25.40;99.90
15789;DHT22;59075;50.670;6.474;2022-08-23T11:16:57;25.40;99.90
15789;DHT22;59075;50.670;6.474;2022-08-23T11:19:48;25.40;99.90
15789;DHT22;59075;50.670;6.474;2022-08-23T11:22:17;25.40;99.90
15789;DHT22;59075;50.670;6.474;2022-08-23T11:27:32;25.40;99.90
15789;DHT22;59075;50.670;6.474;2022-08-23T11:30:37;25.50;99.90
15789;DHT22;59075;50.670;6.474;2022-08-23T11:33:15;25.50;99.90
15789;DHT22;59075;50.670;6.474;2022-08-23T11:35:47;25.50;99.90
15789;DHT22;59075;50.670;6.474;2022-08-23T11:38:16;25.50;99.90
15789;DHT22;59075;50.670;6.474;2022-08-23T11:41:11;25.50;99.90
15789;DHT22;59075;50.670;6.474;2022-08-23T11:46:28;25.50;99.90
15789;DHT22;59075;50.670;6.474;2022-08-23T11:52:01;25.50;99.90
15789;DHT22;59075;50.670;6.474;2022-08-23T11:57:20;25.50;99.90
15789;DHT22;59075;50.670;6.474;2022-08-23T12:00:07;25.50;99.90
15789;DHT22;59075;50.670;6.474;2022-08-23T12:02:50;25.60;99.90
15789;DHT22;59075;50.670;6.474;2022-08-23T12:05:22;25.60;99.90
15789;DHT22;59075;50.670;6.474;2022-08-23T12:11:01;25.60;99.90
15789;DHT22;59075;50.670;6.474;2022-08-23T12:13:47;25.60;99.90
15789;DHT22;59075;50.670;6.474;2022-08-23T12:16:31;25.60;99.90
15789;DHT22;59075;50.670;6.474;2022-08-23T12:19:02;25.60;99.90
15789;DHT22;59075;50.670;6.474;2022-08-23T12:21:34;25.60;99.90
15789;DHT22;59075;50.670;6.474;2022-08-23T12:24:13;25.60;99.90
15789;DHT22;59075;50.670;6.474;2022-08-23T12:26:50;25.60;99.90
15789;DHT22;59075;50.670;6.474;2022-08-23T12:29:30;25.60;99.90
15789;DHT22;59075;50.670;6.474;2022-08-23T12:32:05;25.60;99.90
15789;DHT22;59075;50.670;6.474;2022-08-23T12:34:40;25.60;99.90
15789;DHT22;59075;50.670;6.474;2022-08-23T12:37:15;25.60;99.90
15789;DHT22;59075;50.670;6.474;2022-08-23T12:39:49;25.60;99.90
15789;DHT22;59075;50.670;6.474;2022-08-23T12:44:58;25.60;99.90
15789;DHT22;59075;50.670;6.474;2022-08-23T12:47:25;25.60;99.90
15789;DHT22;59075;50.670;6.474;2022-08-23T12:49:56;25.70;99.90
15789;DHT22;59075;50.670;6.474;2022-08-23T12:52:24;25.70;99.90
15789;DHT22;59075;50.670;6.474;2022-08-23T12:54:52;25.70;99.90
15789;DHT22;59075;50.670;6.474;2022-08-23T12:59:59;25.70;99.90
15789;DHT22;59075;50.670;6.474;2022-08-23T13:02:30;25.70;99.90
15789;DHT22;59075;50.670;6.474;2022-08-23T13:05:01;25.70;99.90
15789;DHT22;59075;50.670;6.474;2022-08-23T13:07:29;25.70;99.90
15789;DHT22;59075;50.670;6.474;2022-08-23T13:09:56;25.70;99.90
15789;DHT22;59075;50.670;6.474;2022-08-23T13:12:25;25.70;99.90
15789;DHT22;59075;50.670;6.474;2022-08-23T13:17:29;25.70;99.90
15789;DHT22;59075;50.670;6.474;2022-08-23T13:20:12;25.70;99.90
15789;DHT22;59075;50.670;6.474;2022-08-23T13:22:59;25.70;99.90
15789;DHT22;59075;50.670;6.474;2022-08-23T13:25:28;25.70;99.90
15789;DHT22;59075;50.670;6.474;2022-08-23T13:27:58;25.70;99.90
15789;DHT22;59075;50.670;6.474;2022-08-23T13:30:27;25.70;99.90
15789;DHT22;59075;50.670;6.474;2022-08-23T13:38:13;25.70;99.90
15789;DHT22;59075;50.670;6.474;2022-08-23T13:40:44;25.80;99.90
15789;DHT22;59075;50.670;6.474;2022-08-23T13:43:17;25.80;99.90
15789;DHT22;59075;50.670;6.474;2022-08-23T13:45:47;25.80;99.90
15789;DHT22;59075;50.670;6.474;2022-08-23T13:48:18;25.80;99.90
15789;DHT22;59075;50.670;6.474;2022-08-23T13:53:13;25.80;99.90
15789;DHT22;59075;50.670;6.474;2022-08-23T13:55:43;25.70;99.90
15789;DHT22;59075;50.670;6.474;2022-08-23T13:58:15;25.70;99.90
15789;DHT22;59075;50.670;6.474;2022-08-23T14:00:43;25.70;99.90
15789;DHT22;59075;50.670;6.474;2022-08-23T14:03:09;25.70;99.90
15789;DHT22;59075;50.670;6.474;2022-08-23T14:10:30;25.80;99.90
15789;DHT22;59075;50.670;6.474;2022-08-23T14:12:57;25.80;99.90
15789;DHT22;59075;50.670;6.474;2022-08-23T14:15:26;25.80;99.90
15789;DHT22;59075;50.670;6.474;2022-08-23T14:17:53;25.80;99.90
15789;DHT22;59075;50.670;6.474;2022-08-23T14:22:48;25.80;99.90
15789;DHT22;59075;50.670;6.474;2022-08-23T14:25:14;25.80;99.90
15789;DHT22;59075;50.670;6.474;2022-08-23T14:27:44;25.80;99.90
15789;DHT22;59075;50.670;6.474;2022-08-23T14:30:21;25.80;99.90
15789;DHT22;59075;50.670;6.474;2022-08-23T14:32:49;25.80;99.90
15789;DHT22;59075;50.670;6.474;2022-08-23T14:35:16;25.90;99.90
15789;DHT22;59075;50.670;6.474;2022-08-23T14:37:43;25.90;99.90
15789;DHT22;59075;50.670;6.474;2022-08-23T14:40:11;25.90;99.90
15789;DHT22;59075;50.670;6.474;2022-08-23T14:45:06;25.90;99.90
15789;DHT22;59075;50.670;6.474;2022-08-23T14:47:33;25.90;99.90
15789;DHT22;59075;50.670;6.474;2022-08-23T14:50:01;25.90;99.90
15789;DHT22;59075;50.670;6.474;2022-08-23T14:52:29;25.90;99.90
15789;DHT22;59075;50.670;6.474;2022-08-23T14:54:56;25.90;99.90
15789;DHT22;59075;50.670;6.474;2022-08-23T14:57:22;25.80;99.90
15789;DHT22;59075;50.670;6.474;2022-08-23T14:59:49;25.90;99.90
15789;DHT22;59075;50.670;6.474;2022-08-23T15:02:21;25.90;99.90
15789;DHT22;59075;50.670;6.474;2022-08-23T15:04:49;25.90;99.90
15789;DHT22;59075;50.670;6.474;2022-08-23T15:07:17;25.90;99.90
15789;DHT22;59075;50.670;6.474;2022-08-23T15:09:43;25.90;99.90
15789;DHT22;59075;50.670;6.474;2022-08-23T15:12:10;25.90;99.90
15789;DHT22;59075;50.670;6.474;2022-08-23T15:17:04;25.90;99.90
15789;DHT22;59075;50.670;6.474;2022-08-23T15:19:32;25.90;99.90
15789;DHT22;59075;50.670;6.474;2022-08-23T15:24:27;25.90;99.90
15789;DHT22;59075;50.670;6.474;2022-08-23T15:26:55;25.90;99.90
15789;DHT22;59075;50.670;6.474;2022-08-23T15:29:24;25.90;99.90
15789;DHT22;59075;50.670;6.474;2022-08-23T15:36:45;25.90;99.90
15789;DHT22;59075;50.670;6.474;2022-08-23T15:41:40;25.90;99.90
15789;DHT22;59075;50.670;6.474;2022-08-23T15:44:07;25.90;99.90
15789;DHT22;59075;50.670;6.474;2022-08-23T15:49:09;25.90;99.90
15789;DHT22;59075;50.670;6.474;2022-08-23T15:51:36;26.00;99.90
15789;DHT22;59075;50.670;6.474;2022-08-23T15:54:03;26.00;99.90
15789;DHT22;59075;50.670;6.474;2022-08-23T15:56:34;25.90;99.90
15789;DHT22;59075;50.670;6.474;2022-08-23T15:59:03;25.90;99.90
15789;DHT22;59075;50.670;6.474;2022-08-23T16:01:30;25.90;99.90
15789;DHT22;59075;50.670;6.474;2022-08-23T16:03:58;25.90;99.90
15789;DHT22;59075;50.670;6.474;2022-08-23T16:06:26;25.90;99.90
15789;DHT22;59075;50.670;6.474;2022-08-23T16:08:53;25.90;99.90
15789;DHT22;59075;50.670;6.474;2022-08-23T16:13:48;25.90;99.90
15789;DHT22;59075;50.670;6.474;2022-08-23T16:16:19;25.90;99.90
15789;DHT22;59075;50.670;6.474;2022-08-23T16:18:47;24.30;99.90
15789;DHT22;59075;50.670;6.474;2022-08-23T16:21:15;25.90;99.90
15789;DHT22;59075;50.670;6.474;2022-08-23T16:23:42;25.90;99.90
15789;DHT22;59075;50.670;6.474;2022-08-23T16:26:11;25.90;99.90
15789;DHT22;59075;50.670;6.474;2022-08-23T16:28:39;26.00;99.90
15789;DHT22;59075;50.670;6.474;2022-08-23T16:31:06;26.00;99.90
15789;DHT22;59075;50.670;6.474;2022-08-23T16:33:34;25.90;99.90
15789;DHT22;59075;50.670;6.474;2022-08-23T16:36:01;26.00;99.90
15789;DHT22;59075;50.670;6.474;2022-08-23T16:38:28;26.00;99.90
15789;DHT22;59075;50.670;6.474;2022-08-23T16:40:54;26.00;99.90
15789;DHT22;59075;50.670;6.474;2022-08-23T16:43:21;26.00;99.90
15789;DHT22;59075;50.670;6.474;2022-08-23T16:45:48;26.00;99.90
15789;DHT22;59075;50.670;6.474;2022-08-23T16:50:44;26.00;99.90
15789;DHT22;59075;50.670;6.474;2022-08-23T16:53:10;26.00;99.90
15789;DHT22;59075;50.670;6.474;2022-08-23T16:55:38;26.00;99.90
15789;DHT22;59075;50.670;6.474;2022-08-23T17:00:32;26.00;99.90
15789;DHT22;59075;50.670;6.474;2022-08-23T17:02:59;25.90;99.90
15789;DHT22;59075;50.670;6.474;2022-08-23T17:05:26;25.90;99.90
15789;DHT22;59075;50.670;6.474;2022-08-23T17:07:55;25.90;99.90
15789;DHT22;59075;50.670;6.474;2022-08-23T17:10:22;26.00;99.90
15789;DHT22;59075;50.670;6.474;2022-08-23T17:15:19;26.00;99.90
15789;DHT22;59075;50.670;6.474;2022-08-23T17:17:46;26.00;99.90
15789;DHT22;59075;50.670;6.474;2022-08-23T17:22:40;26.00;99.90
15789;DHT22;59075;50.670;6.474;2022-08-23T17:25:10;26.00;99.90
15789;DHT22;59075;50.670;6.474;2022-08-23T17:27:38;26.00;99.90
15789;DHT22;59075;50.670;6.474;2022-08-23T17:30:07;26.00;99.90
15789;DHT22;59075;50.670;6.474;2022-08-23T17:35:03;26.00;99.90
15789;DHT22;59075;50.670;6.474;2022-08-23T17:37:31;26.00;99.90
15789;DHT22;59075;50.670;6.474;2022-08-23T17:39:57;26.00;99.90
15789;DHT22;59075;50.670;6.474;2022-08-23T17:44:53;25.90;99.90
15789;DHT22;59075;50.670;6.474;2022-08-23T17:47:19;26.00;99.90
15789;DHT22;59075;50.670;6.474;2022-08-23T17:49:46;25.90;99.90
15789;DHT22;59075;50.670;6.474;2022-08-23T17:52:13;26.00;99.90
15789;DHT22;59075;50.670;6.474;2022-08-23T17:54:41;25.90;99.90
15789;DHT22;59075;50.670;6.474;2022-08-23T17:57:09;25.90;99.90
15789;DHT22;59075;50.670;6.474;2022-08-23T17:59:38;25.90;99.90
15789;DHT22;59075;50.670;6.474;2022-08-23T18:02:05;25.90;99.90
15789;DHT22;59075;50.670;6.474;2022-08-23T18:04:32;25.90;99.90
15789;DHT22;59075;50.670;6.474;2022-08-23T18:06:59;25.90;99.90
15789;DHT22;59075;50.670;6.474;2022-08-23T18:11:53;25.90;99.90
15789;DHT22;59075;50.670;6.474;2022-08-23T18:14:20;25.90;99.90
15789;DHT22;59075;50.670;6.474;2022-08-23T18:16:49;25.90;99.90
15789;DHT22;59075;50.670;6.474;2022-08-23T18:19:16;25.90;99.90
15789;DHT22;59075;50.670;6.474;2022-08-23T18:21:43;25.90;99.90
15789;DHT22;59075;50.670;6.474;2022-08-23T18:24:11;25.90;99.90
15789;DHT22;59075;50.670;6.474;2022-08-23T18:26:38;25.90;99.90
15789;DHT22;59075;50.670;6.474;2022-08-23T18:29:23;25.90;99.90
15789;DHT22;59075;50.670;6.474;2022-08-23T18:31:51;25.90;99.90
15789;DHT22;59075;50.670;6.474;2022-08-23T18:39:14;25.90;99.90
15789;DHT22;59075;50.670;6.474;2022-08-23T18:41:41;25.80;99.90
15789;DHT22;59075;50.670;6.474;2022-08-23T18:44:08;25.80;99.90
15789;DHT22;59075;50.670;6.474;2022-08-23T18:46:38;25.80;99.90
15789;DHT22;59075;50.670;6.474;2022-08-23T18:49:07;25.80;99.90
15789;DHT22;59075;50.670;6.474;2022-08-23T18:51:35;25.80;99.90
15789;DHT22;59075;50.670;6.474;2022-08-23T18:54:02;25.80;99.90
15789;DHT22;59075;50.670;6.474;2022-08-23T18:56:28;25.80;99.90
15789;DHT22;59075;50.670;6.474;2022-08-23T18:58:55;25.80;99.90
15789;DHT22;59075;50.670;6.474;2022-08-23T19:01:23;25.80;99.90
15789;DHT22;59075;50.670;6.474;2022-08-23T19:03:51;25.80;99.90
15789;DHT22;59075;50.670;6.474;2022-08-23T19:06:20;25.80;99.90
15789;DHT22;59075;50.670;6.474;2022-08-23T19:08:47;25.80;99.90
15789;DHT22;59075;50.670;6.474;2022-08-23T19:11:14;25.90;99.90
15789;DHT22;59075;50.670;6.474;2022-08-23T19:13:41;25.80;99.90
15789;DHT22;59075;50.670;6.474;2022-08-23T19:16:09;25.80;99.90
15789;DHT22;59075;50.670;6.474;2022-08-23T19:18:44;25.80;99.90
15789;DHT22;59075;50.670;6.474;2022-08-23T19:21:29;25.80;99.90
15789;DHT22;59075;50.670;6.474;2022-08-23T19:23:57;25.80;99.90
15789;DHT22;59075;50.670;6.474;2022-08-23T19:31:22;25.80;99.90
15789;DHT22;59075;50.670;6.474;2022-08-23T19:33:49;25.80;99.90
15789;DHT22;59075;50.670;6.474;2022-08-23T19:36:17;25.80;99.90
15789;DHT22;59075;50.670;6.474;2022-08-23T19:38:45;25.80;99.90
15789;DHT22;59075;50.670;6.474;2022-08-23T19:41:12;25.80;99.90
15789;DHT22;59075;50.670;6.474;2022-08-23T19:43:39;25.80;99.90
15789;DHT22;59075;50.670;6.474;2022-08-23T19:46:06;25.80;99.90
15789;DHT22;59075;50.670;6.474;2022-08-23T19:48:40;25.80;99.90
15789;DHT22;59075;50.670;6.474;2022-08-23T19:51:07;25.80;99.90
15789;DHT22;59075;50.670;6.474;2022-08-23T19:56:05;25.80;99.90
15789;DHT22;59075;50.670;6.474;2022-08-23T20:00:59;25.80;99.90
15789;DHT22;59075;50.670;6.474;2022-08-23T20:03:26;25.80;99.90
15789;DHT22;59075;50.670;6.474;2022-08-23T20:05:52;25.80;99.90
15789;DHT22;59075;50.670;6.474;2022-08-23T20:08:19;25.80;99.90
15789;DHT22;59075;50.670;6.474;2022-08-23T20:10:46;25.70;99.90
15789;DHT22;59075;50.670;6.474;2022-08-23T20:13:14;25.70;99.90
15789;DHT22;59075;50.670;6.474;2022-08-23T20:15:41;25.80;99.90
15789;DHT22;59075;50.670;6.474;2022-08-23T20:18:07;25.80;99.90
15789;DHT22;59075;50.670;6.474;2022-08-23T20:20:34;25.80;99.90
15789;DHT22;59075;50.670;6.474;2022-08-23T20:23:01;25.70;99.90
15789;DHT22;59075;50.670;6.474;2022-08-23T20:25:45;25.80;99.90
15789;DHT22;59075;50.670;6.474;2022-08-23T20:28:13;25.70;99.90
15789;DHT22;59075;50.670;6.474;2022-08-23T20:30:40;25.70;99.90
15789;DHT22;59075;50.670;6.474;2022-08-23T20:33:06;25.70;99.90
15789;DHT22;59075;50.670;6.474;2022-08-23T20:38:00;25.70;99.90
15789;DHT22;59075;50.670;6.474;2022-08-23T20:40:28;25.70;99.90
15789;DHT22;59075;50.670;6.474;2022-08-23T20:45:23;25.70;99.90
15789;DHT22;59075;50.670;6.474;2022-08-23T20:47:50;25.70;99.90
15789;DHT22;59075;50.670;6.474;2022-08-23T20:50:17;25.70;99.90
15789;DHT22;59075;50.670;6.474;2022-08-23T20:57:38;25.70;99.90
